sensor_id;sensor_type;location;lat;lon;timestamp;temperature;humidity
20398;DHT22;10358;49.590;11.030;2024-03-29T00:00:40;5.80;99.90
20398;DHT22;10358;49.590;11.030;2024-03-29T00:03:07;5.80;99.90
20398;DHT22;10358;49.590;11.030;2024-03-29T00:05:33;5.80;99.90
20398;DHT22;10358;49.590;11.030;2024-03-29T00:07:59;5.80;99.90
20398;DHT22;10358;49.590;11.030;2024-03-29T00:10:24;5.80;99.90
20398;DHT22;10358;49.590;11.030;2024-03-29T00:12:50;5.80;99.90
20398;DHT22;10358;49.590;11.030;2024-03-29T00:15:16;5.80;99.90
20398;DHT22;10358;49.590;11.030;2024-03-29T00:17:42;5.80;99.90
20398;DHT22;10358;49.590;11.030;2024-03-29T00:20:08;5.80;99.90
20398;DHT22;10358;49.590;11.030;2024-03-29T00:22:34;5.80;99.90
20398;DHT22;10358;49.590;11.030;2024-03-29T00:25:00;5.80;99.90
20398;DHT22;10358;49.590;11.030;2024-03-29T00:27:25;5.80;99.90
20398;DHT22;10358;49.590;11.030;2024-03-29T00:29:52;5.80;99.90
20398;DHT22;10358;49.590;11.030;2024-03-29T00:32:19;5.80;99.90
20398;DHT22;10358;49.590;11.030;2024-03-29T00:34:44;5.80;99.90
20398;DHT22;10358;49.590;11.030;2024-03-29T00:37:11;5.80;99.90
20398;DHT22;10358;49.590;11.030;2024-03-29T00:39:36;5.70;99.90
20398;DHT22;10358;49.590;11.030;2024-03-29T00:42:02;5.80;99.90
20398;DHT22;10358;49.590;11.030;2024-03-29T00:44:29;5.80;99.90
20398;DHT22;10358;49.590;11.030;2024-03-29T00:46:55;5.80;99.90
20398;DHT22;10358;49.590;11.030;2024-03-29T00:49:20;5.80;99.90
20398;DHT22;10358;49.590;11.030;2024-03-29T00:51:46;5.70;99.90
20398;DHT22;10358;49.590;11.030;2024-03-29T00:54:11;5.70;99.90
20398;DHT22;10358;49.590;11.030;2024-03-29T00:56:37;5.70;99.90
20398;DHT22;10358;49.590;11.030;2024-03-29T00:59:02;5.60;99.90
20398;DHT22;10358;49.590;11.030;2024-03-29T01:01:28;5.60;99.90
20398;DHT22;10358;49.590;11.030;2024-03-29T01:03:53;5.60;99.90
20398;DHT22;10358;49.590;11.030;2024-03-29T01:06:20;5.60;99.90
20398;DHT22;10358;49.590;11.030;2024-03-29T01:08:45;5.70;99.90
20398;DHT22;10358;49.590;11.030;2024-03-29T01:11:11;5.60;99.90
20398;DHT22;10358;49.590;11.030;2024-03-29T01:13:36;5.70;99.90
20398;DHT22;10358;49.590;11.030;2024-03-29T01:16:02;5.60;99.90
20398;DHT22;10358;49.590;11.030;2024-03-29T01:18:27;5.60;99.90
20398;DHT22;10358;49.590;11.030;2024-03-29T01:20:54;5.70;99.90
20398;DHT22;10358;49.590;11.030;2024-03-29T01:23:20;5.70;99.90
20398;DHT22;10358;49.590;11.030;2024-03-29T01:25:46;5.80;99.90
20398;DHT22;10358;49.590;11.030;2024-03-29T01:28:11;5.80;99.90
20398;DHT22;10358;49.590;11.030;2024-03-29T01:30:37;5.90;99.90
20398;DHT22;10358;49.590;11.030;2024-03-29T01:33:02;5.90;99.90
20398;DHT22;10358;49.590;11.030;2024-03-29T01:35:28;6.00;99.90
20398;DHT22;10358;49.590;11.030;2024-03-29T01:37:53;5.90;99.90
20398;DHT22;10358;49.590;11.030;2024-03-29T01:40:19;5.90;99.90
20398;DHT22;10358;49.590;11.030;2024-03-29T01:42:45;6.00;99.90
20398;DHT22;10358;49.590;11.030;2024-03-29T01:45:10;6.00;99.90
20398;DHT22;10358;49.590;11.030;2024-03-29T01:47:36;5.90;99.90
20398;DHT22;10358;49.590;11.030;2024-03-29T01:50:03;5.90;99.90
20398;DHT22;10358;49.590;11.030;2024-03-29T01:52:29;6.00;99.90
20398;DHT22;10358;49.590;11.030;2024-03-29T01:54:55;6.00;99.90
20398;DHT22;10358;49.590;11.030;2024-03-29T01:57:21;6.00;99.90
20398;DHT22;10358;49.590;11.030;2024-03-29T01:59:47;6.00;99.90
20398;DHT22;10358;49.590;11.030;2024-03-29T02:02:13;6.00;99.90
20398;DHT22;10358;49.590;11.030;2024-03-29T02:04:40;6.00;99.90
20398;DHT22;10358;49.590;11.030;2024-03-29T02:07:06;6.00;99.90
20398;DHT22;10358;49.590;11.030;2024-03-29T02:09:32;6.00;99.90
20398;DHT22;10358;49.590;11.030;2024-03-29T02:11:58;6.00;99.90
20398;DHT22;10358;49.590;11.030;2024-03-29T02:14:24;6.00;99.90
20398;DHT22;10358;49.590;11.030;2024-03-29T02:16:50;6.00;99.90
20398;DHT22;10358;49.590;11.030;2024-03-29T02:19:15;6.10;99.90
20398;DHT22;10358;49.590;11.030;2024-03-29T02:21:44;6.10;99.90
20398;DHT22;10358;49.590;11.030;2024-03-29T02:24:12;6.10;99.90
20398;DHT22;10358;49.590;11.030;2024-03-29T02:26:38;6.10;99.90
20398;DHT22;10358;49.590;11.030;2024-03-29T02:29:08;6.10;99.90
20398;DHT22;10358;49.590;11.030;2024-03-29T02:31:35;6.10;99.90
20398;DHT22;10358;49.590;11.030;2024-03-29T02:34:00;6.20;99.90
20398;DHT22;10358;49.590;11.030;2024-03-29T02:36:26;6.20;99.90
20398;DHT22;10358;49.590;11.030;2024-03-29T02:38:51;6.20;99.90
20398;DHT22;10358;49.590;11.030;2024-03-29T02:41:17;6.20;99.90
20398;DHT22;10358;49.590;11.030;2024-03-29T02:43:42;6.20;99.90
20398;DHT22;10358;49.590;11.030;2024-03-29T02:46:08;6.30;99.90
20398;DHT22;10358;49.590;11.030;2024-03-29T02:48:34;6.30;99.90
20398;DHT22;10358;49.590;11.030;2024-03-29T02:50:59;6.30;99.90
20398;DHT22;10358;49.590;11.030;2024-03-29T02:53:25;6.40;99.90
20398;DHT22;10358;49.590;11.030;2024-03-29T02:55:50;6.40;99.90
20398;DHT22;10358;49.590;11.030;2024-03-29T02:58:16;6.40;99.90
20398;DHT22;10358;49.590;11.030;2024-03-29T03:00:42;6.40;99.90
20398;DHT22;10358;49.590;11.030;2024-03-29T03:03:07;6.40;99.90
20398;DHT22;10358;49.590;11.030;2024-03-29T03:05:33;6.50;99.90
20398;DHT22;10358;49.590;11.030;2024-03-29T03:07:58;6.50;99.90
20398;DHT22;10358;49.590;11.030;2024-03-29T03:10:47;6.50;99.90
20398;DHT22;10358;49.590;11.030;2024-03-29T03:13:21;6.60;99.90
20398;DHT22;10358;49.590;11.030;2024-03-29T03:15:47;6.50;99.90
20398;DHT22;10358;49.590;11.030;2024-03-29T03:18:12;6.60;99.90
20398;DHT22;10358;49.590;11.030;2024-03-29T03:20:38;6.60;99.90
20398;DHT22;10358;49.590;11.030;2024-03-29T03:23:04;6.70;99.90
20398;DHT22;10358;49.590;11.030;2024-03-29T03:25:29;6.60;99.90
20398;DHT22;10358;49.590;11.030;2024-03-29T03:27:55;6.70;99.90
20398;DHT22;10358;49.590;11.030;2024-03-29T03:30:21;6.70;99.90
20398;DHT22;10358;49.590;11.030;2024-03-29T03:32:47;6.70;99.90
20398;DHT22;10358;49.590;11.030;2024-03-29T03:35:13;6.70;99.90
20398;DHT22;10358;49.590;11.030;2024-03-29T03:37:38;6.80;99.90
20398;DHT22;10358;49.590;11.030;2024-03-29T03:40:05;6.80;99.90
20398;DHT22;10358;49.590;11.030;2024-03-29T03:42:32;6.80;99.90
20398;DHT22;10358;49.590;11.030;2024-03-29T03:44:58;6.80;99.90
20398;DHT22;10358;49.590;11.030;2024-03-29T03:47:23;6.80;99.90
20398;DHT22;10358;49.590;11.030;2024-03-29T03:49:49;6.90;99.90
20398;DHT22;10358;49.590;11.030;2024-03-29T03:52:15;6.90;99.90
20398;DHT22;10358;49.590;11.030;2024-03-29T03:54:40;6.90;99.90
20398;DHT22;10358;49.590;11.030;2024-03-29T03:57:06;6.90;99.90
20398;DHT22;10358;49.590;11.030;2024-03-29T03:59:32;7.00;99.90
20398;DHT22;10358;49.590;11.030;2024-03-29T04:01:57;7.00;99.90
20398;DHT22;10358;49.590;11.030;2024-03-29T04:04:23;7.00;99.90
20398;DHT22;10358;49.590;11.030;2024-03-29T04:06:48;7.00;99.90
20398;DHT22;10358;49.590;11.030;2024-03-29T04:09:16;7.00;99.90
20398;DHT22;10358;49.590;11.030;2024-03-29T04:11:42;7.10;99.90
20398;DHT22;10358;49.590;11.030;2024-03-29T04:14:07;7.10;99.90
20398;DHT22;10358;49.590;11.030;2024-03-29T04:16:33;7.10;99.90
20398;DHT22;10358;49.590;11.030;2024-03-29T04:18:58;7.10;99.90
20398;DHT22;10358;49.590;11.030;2024-03-29T04:21:24;7.10;99.90
20398;DHT22;10358;49.590;11.030;2024-03-29T04:23:51;7.20;99.90
20398;DHT22;10358;49.590;11.030;2024-03-29T04:26:17;7.20;99.90
20398;DHT22;10358;49.590;11.030;2024-03-29T04:28:42;7.20;99.90
20398;DHT22;10358;49.590;11.030;2024-03-29T04:31:08;7.20;99.90
20398;DHT22;10358;49.590;11.030;2024-03-29T04:33:33;7.30;99.90
20398;DHT22;10358;49.590;11.030;2024-03-29T04:36:01;7.30;99.90
20398;DHT22;10358;49.590;11.030;2024-03-29T04:38:28;7.30;99.90
20398;DHT22;10358;49.590;11.030;2024-03-29T04:40:56;7.30;99.90
20398;DHT22;10358;49.590;11.030;2024-03-29T04:43:23;7.30;99.90
20398;DHT22;10358;49.590;11.030;2024-03-29T04:45:49;7.30;99.90
20398;DHT22;10358;49.590;11.030;2024-03-29T04:48:15;7.30;99.90
20398;DHT22;10358;49.590;11.030;2024-03-29T04:50:41;7.40;99.90
20398;DHT22;10358;49.590;11.030;2024-03-29T04:53:09;7.40;99.90
20398;DHT22;10358;49.590;11.030;2024-03-29T04:55:35;7.40;99.90
20398;DHT22;10358;49.590;11.030;2024-03-29T04:58:01;7.40;99.90
20398;DHT22;10358;49.590;11.030;2024-03-29T05:00:28;7.40;99.90
20398;DHT22;10358;49.590;11.030;2024-03-29T05:02:53;7.50;99.90
20398;DHT22;10358;49.590;11.030;2024-03-29T05:05:19;7.50;99.90
20398;DHT22;10358;49.590;11.030;2024-03-29T05:07:45;7.50;99.90
20398;DHT22;10358;49.590;11.030;2024-03-29T05:10:10;7.50;99.90
20398;DHT22;10358;49.590;11.030;2024-03-29T05:12:36;7.50;99.90
20398;DHT22;10358;49.590;11.030;2024-03-29T05:15:02;7.60;99.90
20398;DHT22;10358;49.590;11.030;2024-03-29T05:17:28;7.60;99.90
20398;DHT22;10358;49.590;11.030;2024-03-29T05:19:54;7.60;99.90
20398;DHT22;10358;49.590;11.030;2024-03-29T05:22:20;7.60;99.90
20398;DHT22;10358;49.590;11.030;2024-03-29T05:24:45;7.60;99.90
20398;DHT22;10358;49.590;11.030;2024-03-29T05:27:12;7.60;99.90
20398;DHT22;10358;49.590;11.030;2024-03-29T05:29:38;7.60;99.90
20398;DHT22;10358;49.590;11.030;2024-03-29T05:32:04;7.70;99.90
20398;DHT22;10358;49.590;11.030;2024-03-29T05:34:30;7.70;99.90
20398;DHT22;10358;49.590;11.030;2024-03-29T05:36:56;7.70;99.90
20398;DHT22;10358;49.590;11.030;2024-03-29T05:39:22;7.70;99.90
20398;DHT22;10358;49.590;11.030;2024-03-29T05:41:49;7.70;99.90
20398;DHT22;10358;49.590;11.030;2024-03-29T05:44:14;7.70;99.90
20398;DHT22;10358;49.590;11.030;2024-03-29T05:46:41;7.80;99.90
20398;DHT22;10358;49.590;11.030;2024-03-29T05:49:07;7.80;99.90
20398;DHT22;10358;49.590;11.030;2024-03-29T05:51:33;7.80;99.90
20398;DHT22;10358;49.590;11.030;2024-03-29T05:54:01;7.80;99.90
20398;DHT22;10358;49.590;11.030;2024-03-29T05:56:29;7.90;99.90
20398;DHT22;10358;49.590;11.030;2024-03-29T05:58:54;7.90;99.90
20398;DHT22;10358;49.590;11.030;2024-03-29T06:01:20;8.00;99.90
20398;DHT22;10358;49.590;11.030;2024-03-29T06:03:45;8.00;99.90
20398;DHT22;10358;49.590;11.030;2024-03-29T06:06:11;8.00;99.90
20398;DHT22;10358;49.590;11.030;2024-03-29T06:08:43;8.00;99.90
20398;DHT22;10358;49.590;11.030;2024-03-29T06:11:08;8.00;99.90
20398;DHT22;10358;49.590;11.030;2024-03-29T06:13:34;8.00;99.90
20398;DHT22;10358;49.590;11.030;2024-03-29T06:16:19;8.00;99.90
20398;DHT22;10358;49.590;11.030;2024-03-29T06:19:03;8.10;99.90
20398;DHT22;10358;49.590;11.030;2024-03-29T06:21:29;8.10;99.90
20398;DHT22;10358;49.590;11.030;2024-03-29T06:23:57;8.10;99.90
20398;DHT22;10358;49.590;11.030;2024-03-29T06:26:23;8.10;99.90
20398;DHT22;10358;49.590;11.030;2024-03-29T06:28:48;8.20;99.90
20398;DHT22;10358;49.590;11.030;2024-03-29T06:31:14;8.20;99.90
20398;DHT22;10358;49.590;11.030;2024-03-29T06:33:39;8.30;99.90
20398;DHT22;10358;49.590;11.030;2024-03-29T06:36:05;8.40;99.90
20398;DHT22;10358;49.590;11.030;2024-03-29T06:38:32;8.40;99.90
20398;DHT22;10358;49.590;11.030;2024-03-29T06:40:58;8.50;99.90
20398;DHT22;10358;49.590;11.030;2024-03-29T06:43:24;8.50;99.90
20398;DHT22;10358;49.590;11.030;2024-03-29T06:45:49;8.50;99.90
20398;DHT22;10358;49.590;11.030;2024-03-29T06:48:16;8.50;99.90
20398;DHT22;10358;49.590;11.030;2024-03-29T06:50:42;8.50;99.90
20398;DHT22;10358;49.590;11.030;2024-03-29T06:53:07;8.60;99.90
20398;DHT22;10358;49.590;11.030;2024-03-29T06:55:35;8.60;99.90
20398;DHT22;10358;49.590;11.030;2024-03-29T06:58:04;8.70;99.90
20398;DHT22;10358;49.590;11.030;2024-03-29T07:00:29;8.70;99.90
20398;DHT22;10358;49.590;11.030;2024-03-29T07:02:55;8.70;99.90
20398;DHT22;10358;49.590;11.030;2024-03-29T07:05:21;8.70;99.90
20398;DHT22;10358;49.590;11.030;2024-03-29T07:07:46;8.70;99.90
20398;DHT22;10358;49.590;11.030;2024-03-29T07:10:13;8.70;99.90
20398;DHT22;10358;49.590;11.030;2024-03-29T07:12:39;8.70;99.90
20398;DHT22;10358;49.590;11.030;2024-03-29T07:15:05;8.80;99.90
20398;DHT22;10358;49.590;11.030;2024-03-29T07:17:30;8.80;99.90
20398;DHT22;10358;49.590;11.030;2024-03-29T07:19:56;8.90;99.90
20398;DHT22;10358;49.590;11.030;2024-03-29T07:22:22;9.00;99.90
20398;DHT22;10358;49.590;11.030;2024-03-29T07:24:47;9.00;99.90
20398;DHT22;10358;49.590;11.030;2024-03-29T07:27:13;9.00;99.90
20398;DHT22;10358;49.590;11.030;2024-03-29T07:29:42;9.20;99.90
20398;DHT22;10358;49.590;11.030;2024-03-29T07:32:09;9.30;99.90
20398;DHT22;10358;49.590;11.030;2024-03-29T07:34:35;9.50;99.90
20398;DHT22;10358;49.590;11.030;2024-03-29T07:37:01;9.70;99.90
20398;DHT22;10358;49.590;11.030;2024-03-29T07:39:28;9.90;99.90
20398;DHT22;10358;49.590;11.030;2024-03-29T07:41:54;10.10;99.90
20398;DHT22;10358;49.590;11.030;2024-03-29T07:44:19;10.30;99.90
20398;DHT22;10358;49.590;11.030;2024-03-29T07:46:45;10.40;99.90
20398;DHT22;10358;49.590;11.030;2024-03-29T07:49:13;10.50;99.90
20398;DHT22;10358;49.590;11.030;2024-03-29T07:51:39;10.60;99.90
20398;DHT22;10358;49.590;11.030;2024-03-29T07:54:04;10.80;99.90
20398;DHT22;10358;49.590;11.030;2024-03-29T07:56:30;10.90;99.90
20398;DHT22;10358;49.590;11.030;2024-03-29T07:58:56;11.10;99.90
20398;DHT22;10358;49.590;11.030;2024-03-29T08:01:22;11.20;99.90
20398;DHT22;10358;49.590;11.030;2024-03-29T08:03:52;11.30;99.90
20398;DHT22;10358;49.590;11.030;2024-03-29T08:06:22;11.50;99.90
20398;DHT22;10358;49.590;11.030;2024-03-29T08:08:49;11.70;99.90
20398;DHT22;10358;49.590;11.030;2024-03-29T08:11:15;11.80;99.90
20398;DHT22;10358;49.590;11.030;2024-03-29T08:13:41;11.90;99.90
20398;DHT22;10358;49.590;11.030;2024-03-29T08:16:07;11.90;99.90
20398;DHT22;10358;49.590;11.030;2024-03-29T08:18:32;12.00;99.90
20398;DHT22;10358;49.590;11.030;2024-03-29T08:21:02;12.20;99.90
20398;DHT22;10358;49.590;11.030;2024-03-29T08:23:29;12.30;97.30
20398;DHT22;10358;49.590;11.030;2024-03-29T08:25:54;12.50;97.10
20398;DHT22;10358;49.590;11.030;2024-03-29T08:28:23;12.60;97.90
20398;DHT22;10358;49.590;11.030;2024-03-29T08:30:59;12.70;97.10
20398;DHT22;10358;49.590;11.030;2024-03-29T08:33:25;12.80;94.90
20398;DHT22;10358;49.590;11.030;2024-03-29T08:35:50;12.90;93.90
20398;DHT22;10358;49.590;11.030;2024-03-29T08:38:16;12.90;93.30
20398;DHT22;10358;49.590;11.030;2024-03-29T08:40:41;12.90;93.70
20398;DHT22;10358;49.590;11.030;2024-03-29T08:43:09;12.90;92.50
20398;DHT22;10358;49.590;11.030;2024-03-29T08:45:35;12.80;91.70
20398;DHT22;10358;49.590;11.030;2024-03-29T08:48:06;12.80;92.70
20398;DHT22;10358;49.590;11.030;2024-03-29T08:50:33;12.90;92.20
20398;DHT22;10358;49.590;11.030;2024-03-29T08:52:59;12.90;92.70
20398;DHT22;10358;49.590;11.030;2024-03-29T08:55:24;12.90;92.30
20398;DHT22;10358;49.590;11.030;2024-03-29T08:57:49;12.90;92.50
20398;DHT22;10358;49.590;11.030;2024-03-29T09:00:15;12.80;92.90
20398;DHT22;10358;49.590;11.030;2024-03-29T09:02:41;12.80;93.10
20398;DHT22;10358;49.590;11.030;2024-03-29T09:05:06;12.70;92.80
20398;DHT22;10358;49.590;11.030;2024-03-29T09:07:32;12.60;93.30
20398;DHT22;10358;49.590;11.030;2024-03-29T09:09:57;12.50;93.60
20398;DHT22;10358;49.590;11.030;2024-03-29T09:12:23;12.40;94.10
20398;DHT22;10358;49.590;11.030;2024-03-29T09:14:48;12.30;94.60
20398;DHT22;10358;49.590;11.030;2024-03-29T09:17:14;12.20;95.50
20398;DHT22;10358;49.590;11.030;2024-03-29T09:19:39;12.00;96.90
20398;DHT22;10358;49.590;11.030;2024-03-29T09:22:05;11.80;99.90
20398;DHT22;10358;49.590;11.030;2024-03-29T09:24:30;11.60;99.90
20398;DHT22;10358;49.590;11.030;2024-03-29T09:26:57;11.40;99.90
20398;DHT22;10358;49.590;11.030;2024-03-29T09:29:22;11.20;99.90
20398;DHT22;10358;49.590;11.030;2024-03-29T09:31:48;11.00;99.90
20398;DHT22;10358;49.590;11.030;2024-03-29T09:34:14;10.90;99.90
20398;DHT22;10358;49.590;11.030;2024-03-29T09:36:40;10.80;99.90
20398;DHT22;10358;49.590;11.030;2024-03-29T09:39:05;10.70;99.90
20398;DHT22;10358;49.590;11.030;2024-03-29T09:41:31;10.60;99.90
20398;DHT22;10358;49.590;11.030;2024-03-29T09:44:03;10.60;99.90
20398;DHT22;10358;49.590;11.030;2024-03-29T09:46:29;10.60;99.90
20398;DHT22;10358;49.590;11.030;2024-03-29T09:48:56;10.60;99.90
20398;DHT22;10358;49.590;11.030;2024-03-29T09:51:24;10.70;99.90
20398;DHT22;10358;49.590;11.030;2024-03-29T09:53:51;10.70;99.90
20398;DHT22;10358;49.590;11.030;2024-03-29T09:56:16;10.70;99.90
20398;DHT22;10358;49.590;11.030;2024-03-29T09:58:42;10.70;99.90
20398;DHT22;10358;49.590;11.030;2024-03-29T10:01:07;10.70;99.90
20398;DHT22;10358;49.590;11.030;2024-03-29T10:03:39;10.80;99.90
20398;DHT22;10358;49.590;11.030;2024-03-29T10:06:05;10.90;99.90
20398;DHT22;10358;49.590;11.030;2024-03-29T10:08:35;10.90;99.90
20398;DHT22;10358;49.590;11.030;2024-03-29T10:11:01;11.00;99.90
20398;DHT22;10358;49.590;11.030;2024-03-29T10:13:26;11.10;99.90
20398;DHT22;10358;49.590;11.030;2024-03-29T10:15:53;11.20;99.90
20398;DHT22;10358;49.590;11.030;2024-03-29T10:18:26;11.40;99.90
20398;DHT22;10358;49.590;11.030;2024-03-29T10:21:03;11.40;99.90
20398;DHT22;10358;49.590;11.030;2024-03-29T10:23:29;11.40;99.90
20398;DHT22;10358;49.590;11.030;2024-03-29T10:25:55;11.50;99.90
20398;DHT22;10358;49.590;11.030;2024-03-29T10:28:27;11.60;99.90
20398;DHT22;10358;49.590;11.030;2024-03-29T10:30:55;11.60;99.90
20398;DHT22;10358;49.590;11.030;2024-03-29T10:33:20;11.70;99.90
20398;DHT22;10358;49.590;11.030;2024-03-29T10:35:46;11.70;99.90
20398;DHT22;10358;49.590;11.030;2024-03-29T10:38:12;11.80;99.90
20398;DHT22;10358;49.590;11.030;2024-03-29T10:40:41;11.90;99.90
20398;DHT22;10358;49.590;11.030;2024-03-29T10:43:09;11.90;99.90
20398;DHT22;10358;49.590;11.030;2024-03-29T10:45:38;12.00;99.90
20398;DHT22;10358;49.590;11.030;2024-03-29T10:48:05;11.90;99.90
20398;DHT22;10358;49.590;11.030;2024-03-29T10:50:38;11.90;99.90
20398;DHT22;10358;49.590;11.030;2024-03-29T10:53:06;11.90;99.90
20398;DHT22;10358;49.590;11.030;2024-03-29T10:55:37;12.00;99.90
20398;DHT22;10358;49.590;11.030;2024-03-29T10:58:04;12.00;99.90
20398;DHT22;10358;49.590;11.030;2024-03-29T11:00:37;12.00;99.90
20398;DHT22;10358;49.590;11.030;2024-03-29T11:03:20;12.10;99.90
20398;DHT22;10358;49.590;11.030;2024-03-29T11:05:50;12.10;99.90
20398;DHT22;10358;49.590;11.030;2024-03-29T11:08:24;12.00;99.90
20398;DHT22;10358;49.590;11.030;2024-03-29T11:10:54;12.00;99.90
20398;DHT22;10358;49.590;11.030;2024-03-29T11:13:43;12.00;99.90
20398;DHT22;10358;49.590;11.030;2024-03-29T11:16:11;11.90;99.90
20398;DHT22;10358;49.590;11.030;2024-03-29T11:18:37;11.90;99.90
20398;DHT22;10358;49.590;11.030;2024-03-29T11:21:03;11.80;99.90
20398;DHT22;10358;49.590;11.030;2024-03-29T11:23:31;11.80;99.90
20398;DHT22;10358;49.590;11.030;2024-03-29T11:25:58;11.80;99.90
20398;DHT22;10358;49.590;11.030;2024-03-29T11:28:30;11.80;99.90
20398;DHT22;10358;49.590;11.030;2024-03-29T11:31:02;11.90;99.90
20398;DHT22;10358;49.590;11.030;2024-03-29T11:35:57;12.10;99.90
20398;DHT22;10358;49.590;11.030;2024-03-29T11:38:35;12.10;99.90
20398;DHT22;10358;49.590;11.030;2024-03-29T11:41:15;12.20;99.90
20398;DHT22;10358;49.590;11.030;2024-03-29T11:43:42;12.30;99.90
20398;DHT22;10358;49.590;11.030;2024-03-29T11:46:14;12.30;99.90
20398;DHT22;10358;49.590;11.030;2024-03-29T11:48:43;12.30;99.90
20398;DHT22;10358;49.590;11.030;2024-03-29T11:51:12;12.30;99.90
20398;DHT22;10358;49.590;11.030;2024-03-29T11:53:40;12.30;99.90
20398;DHT22;10358;49.590;11.030;2024-03-29T11:56:06;12.40;99.90
20398;DHT22;10358;49.590;11.030;2024-03-29T11:58:33;12.50;99.90
20398;DHT22;10358;49.590;11.030;2024-03-29T12:01:02;12.60;99.90
20398;DHT22;10358;49.590;11.030;2024-03-29T12:03:29;12.70;99.90
20398;DHT22;10358;49.590;11.030;2024-03-29T12:05:56;12.80;99.90
20398;DHT22;10358;49.590;11.030;2024-03-29T12:08:29;12.80;99.90
20398;DHT22;10358;49.590;11.030;2024-03-29T12:10:55;12.90;99.90
20398;DHT22;10358;49.590;11.030;2024-03-29T12:13:21;12.90;99.90
20398;DHT22;10358;49.590;11.030;2024-03-29T12:15:47;12.90;99.90
20398;DHT22;10358;49.590;11.030;2024-03-29T12:18:12;13.00;99.90
20398;DHT22;10358;49.590;11.030;2024-03-29T12:20:42;13.00;99.90
20398;DHT22;10358;49.590;11.030;2024-03-29T12:23:18;13.00;99.90
20398;DHT22;10358;49.590;11.030;2024-03-29T12:25:50;12.90;99.90
20398;DHT22;10358;49.590;11.030;2024-03-29T12:28:17;12.90;99.90
20398;DHT22;10358;49.590;11.030;2024-03-29T12:30:45;13.10;99.90
20398;DHT22;10358;49.590;11.030;2024-03-29T12:33:21;13.20;99.90
20398;DHT22;10358;49.590;11.030;2024-03-29T12:35:51;13.40;99.90
20398;DHT22;10358;49.590;11.030;2024-03-29T12:38:21;13.70;99.90
20398;DHT22;10358;49.590;11.030;2024-03-29T12:40:48;14.00;99.90
20398;DHT22;10358;49.590;11.030;2024-03-29T12:43:15;14.30;99.90
20398;DHT22;10358;49.590;11.030;2024-03-29T12:45:44;14.60;99.90
20398;DHT22;10358;49.590;11.030;2024-03-29T12:48:11;14.90;99.90
20398;DHT22;10358;49.590;11.030;2024-03-29T12:50:40;15.10;99.90
20398;DHT22;10358;49.590;11.030;2024-03-29T12:53:07;15.20;99.90
20398;DHT22;10358;49.590;11.030;2024-03-29T12:55:39;15.40;99.90
20398;DHT22;10358;49.590;11.030;2024-03-29T12:58:07;15.60;99.90
20398;DHT22;10358;49.590;11.030;2024-03-29T13:00:38;15.80;99.90
20398;DHT22;10358;49.590;11.030;2024-03-29T13:03:08;15.80;99.90
20398;DHT22;10358;49.590;11.030;2024-03-29T13:05:38;16.00;99.90
20398;DHT22;10358;49.590;11.030;2024-03-29T13:08:08;16.10;99.90
20398;DHT22;10358;49.590;11.030;2024-03-29T13:10:38;16.00;99.90
20398;DHT22;10358;49.590;11.030;2024-03-29T13:13:04;15.90;99.90
20398;DHT22;10358;49.590;11.030;2024-03-29T13:15:33;15.70;99.90
20398;DHT22;10358;49.590;11.030;2024-03-29T13:17:58;15.60;99.90
20398;DHT22;10358;49.590;11.030;2024-03-29T13:20:25;15.70;99.90
20398;DHT22;10358;49.590;11.030;2024-03-29T13:22:51;15.50;99.90
20398;DHT22;10358;49.590;11.030;2024-03-29T13:25:20;15.50;99.90
20398;DHT22;10358;49.590;11.030;2024-03-29T13:27:50;15.50;99.90
20398;DHT22;10358;49.590;11.030;2024-03-29T13:30:25;15.50;99.90
20398;DHT22;10358;49.590;11.030;2024-03-29T13:32:51;15.30;99.90
20398;DHT22;10358;49.590;11.030;2024-03-29T13:35:17;15.40;99.90
20398;DHT22;10358;49.590;11.030;2024-03-29T13:48:08;16.00;99.90
20398;DHT22;10358;49.590;11.030;2024-03-29T13:50:36;16.20;99.90
20398;DHT22;10358;49.590;11.030;2024-03-29T13:53:02;16.40;99.90
20398;DHT22;10358;49.590;11.030;2024-03-29T13:55:29;16.60;99.90
20398;DHT22;10358;49.590;11.030;2024-03-29T14:00:50;17.20;99.90
20398;DHT22;10358;49.590;11.030;2024-03-29T14:03:22;17.30;99.90
20398;DHT22;10358;49.590;11.030;2024-03-29T14:05:55;17.40;99.90
20398;DHT22;10358;49.590;11.030;2024-03-29T14:08:23;17.60;99.90
20398;DHT22;10358;49.590;11.030;2024-03-29T14:10:48;17.80;99.90
20398;DHT22;10358;49.590;11.030;2024-03-29T14:13:17;18.00;99.90
20398;DHT22;10358;49.590;11.030;2024-03-29T14:15:45;18.00;99.90
20398;DHT22;10358;49.590;11.030;2024-03-29T14:18:10;17.80;99.90
20398;DHT22;10358;49.590;11.030;2024-03-29T14:20:36;17.50;99.90
20398;DHT22;10358;49.590;11.030;2024-03-29T14:23:01;17.20;99.90
20398;DHT22;10358;49.590;11.030;2024-03-29T14:25:34;17.10;99.90
20398;DHT22;10358;49.590;11.030;2024-03-29T14:28:05;17.00;99.90
20398;DHT22;10358;49.590;11.030;2024-03-29T14:30:30;17.00;99.90
20398;DHT22;10358;49.590;11.030;2024-03-29T14:32:56;16.80;99.90
20398;DHT22;10358;49.590;11.030;2024-03-29T14:35:22;16.70;99.90
20398;DHT22;10358;49.590;11.030;2024-03-29T14:37:48;16.60;99.90
20398;DHT22;10358;49.590;11.030;2024-03-29T14:40:26;16.50;99.90
20398;DHT22;10358;49.590;11.030;2024-03-29T14:42:54;16.50;99.90
20398;DHT22;10358;49.590;11.030;2024-03-29T14:45:26;16.50;99.90
20398;DHT22;10358;49.590;11.030;2024-03-29T14:47:53;16.40;99.90
20398;DHT22;10358;49.590;11.030;2024-03-29T14:50:19;16.30;99.90
20398;DHT22;10358;49.590;11.030;2024-03-29T14:52:45;16.40;99.90
20398;DHT22;10358;49.590;11.030;2024-03-29T14:55:10;16.40;99.90
20398;DHT22;10358;49.590;11.030;2024-03-29T14:57:39;16.50;99.90
20398;DHT22;10358;49.590;11.030;2024-03-29T15:00:09;16.60;99.90
20398;DHT22;10358;49.590;11.030;2024-03-29T15:02:35;16.60;99.90
20398;DHT22;10358;49.590;11.030;2024-03-29T15:05:03;16.70;99.90
20398;DHT22;10358;49.590;11.030;2024-03-29T15:07:33;17.10;99.90
20398;DHT22;10358;49.590;11.030;2024-03-29T15:09:59;17.20;99.90
20398;DHT22;10358;49.590;11.030;2024-03-29T15:12:26;17.30;99.90
20398;DHT22;10358;49.590;11.030;2024-03-29T15:14:51;17.60;99.90
20398;DHT22;10358;49.590;11.030;2024-03-29T15:17:17;17.80;99.90
20398;DHT22;10358;49.590;11.030;2024-03-29T15:19:46;17.90;99.90
20398;DHT22;10358;49.590;11.030;2024-03-29T15:22:16;18.00;99.90
20398;DHT22;10358;49.590;11.030;2024-03-29T15:24:41;18.10;99.90
20398;DHT22;10358;49.590;11.030;2024-03-29T15:27:10;18.30;99.90
20398;DHT22;10358;49.590;11.030;2024-03-29T15:29:54;18.40;99.90
20398;DHT22;10358;49.590;11.030;2024-03-29T15:32:23;18.50;99.90
20398;DHT22;10358;49.590;11.030;2024-03-29T15:34:51;18.70;99.90
20398;DHT22;10358;49.590;11.030;2024-03-29T15:37:20;18.90;99.90